L'viv, Ukraine
Current Conditions -  °F | °C
As of 9:30 PM on Friday 24 Oct 2014 (Local Time) from UKLL Reporting Station
Broken Clouds Broken Clouds  
Wind Chill: 20°   Ceiling: 1200
Heat Index: 30°   Visibility: 6mi
Dew Point: 25°   Wind: 13mph
Humidity: 80%   Direction: 110°ESE
Pressure: 30.36"   Gusts: NA
Location:  49.84°N, 24.03°E
Report Text: UKLL 241830Z 11006MPS 9999 SCT012CB BKN012 M01/M04 Q1028 13CLRD80 NOSIG
Loading
Personal Weather Stations






























Interactive Weather Map
Tropical Storm Tracking
New forecast layout! Learn more

10-Day Weather Forecast

Advertisements
Track Severe Weather on mobile